Data for 09/15/2017

Time Sea-Level Adjusted Pressure Absolute Pressure Temperature Relative Humidity Dew Point   
(mb) (inHg) (mb) (inHg) (C) (F) (%) (C) (F)
00:05 1017 30.03 846 24.98 4.9 40.9 90 3.4 38.2
00:10 1017 30.03 846 24.98 4.8 40.6 91 3.4 38.1
00:15 1017 30.03 846 24.98 4.8 40.7 91 3.4 38.2
00:20 1017 30.03 846 24.98 4.8 40.6 90 3.3 38
00:25 1017 30.03 846 24.98 4.7 40.5 91 3.3 38
00:30 1016 30 846 24.98 4.8 40.6 91 3.4 38
00:35 1017 30.03 846 24.98 4.6 40.3 91 3.2 37.8
00:40 1017 30.03 846 24.98 4.8 40.6 91 3.4 38
00:45 1017 30.03 846 24.98 4.7 40.4 91 3.3 37.9
00:50 1016 30 846 24.98 4.7 40.4 91 3.3 38
00:55 1016 30 846 24.98 4.8 40.6 90 3.3 37.9
01:00 1016 30 846 24.98 4.8 40.6 90 3.3 37.9
01:05 1016 30 846 24.98 4.8 40.6 90 3.3 37.9
01:10 1016 30 846 24.98 4.7 40.4 90 3.2 37.8
01:15 1016 30 846 24.98 4.7 40.5 90 3.3 37.9
01:20 1016 30 846 24.98 4.7 40.5 91 3.3 38
01:25 1016 30 846 24.98 4.7 40.5 90 3.2 37.8
01:30 1016 30 846 24.98 4.6 40.2 90 3 37.5
01:35 1016 30 846 24.98 4.7 40.5 90 3.2 37.7
01:40 1016 30 845 24.95 4.9 40.8 90 3.3 38
01:45 1016 30 845 24.95 4.7 40.5 89 3.1 37.5
01:50 1016 30 845 24.95 4.7 40.5 85 2.5 36.5
01:55 1016 30 845 24.95 4.8 40.6 82 2.1 35.7
02:00 1016 30 845 24.95 4.8 40.6 84 2.3 36.2
02:05 1016 30 845 24.95 4.7 40.4 84 2.2 35.9
02:10 1016 30 845 24.95 4.7 40.4 84 2.2 36
02:15 1016 30 845 24.95 4.7 40.4 84 2.2 35.9
02:20 1016 30 845 24.95 4.7 40.4 83 2.1 35.8
02:25 1016 30 845 24.95 4.7 40.4 83 2 35.6
02:30 1016 30 845 24.95 4.6 40.3 84 2.2 35.9
02:35 1016 30 845 24.95 4.6 40.2 84 2.1 35.7
02:40 1016 30 845 24.95 4.5 40.2 84 2.1 35.8
02:45 1016 30 845 24.95 4.5 40.1 84 2 35.7
02:50 1016 30 845 24.95 4.5 40.1 84 2.1 35.8
02:55 1016 30 845 24.95 4.5 40 86 2.3 36.1
03:00 1016 30 845 24.95 4.5 40 87 2.4 36.3
03:05 1016 30 845 24.95 4.4 40 87 2.4 36.4
03:10 1016 30 845 24.95 4.5 40.1 88 2.7 36.8
03:15 1016 30 845 24.95 4.6 40.2 88 2.8 37.1
03:20 1016 30 845 24.95 4.6 40.2 89 2.9 37.1
03:25 1016 30 845 24.95 4.5 40.2 88 2.7 36.8
03:30 1016 30 845 24.95 4.4 39.9 90 2.8 37.1
03:35 1016 30 845 24.95 4.1 39.4 91 2.7 36.9
03:40 1016 30 845 24.95 4.2 39.5 91 2.8 37
03:45 1016 30 845 24.95 4.1 39.4 91 2.7 36.9
03:50 1016 30 845 24.95 4.1 39.4 91 2.7 36.8
03:55 1016 30 845 24.95 4 39.3 91 2.7 36.8
04:00 1016 30 845 24.95 4 39.2 91 2.7 36.8
04:05 1016 30 845 24.95 4 39.2 91 2.7 36.8
04:10 1016 30 845 24.95 4 39.2 91 2.6 36.8
04:15 1016 30 845 24.95 3.9 39.1 91 2.6 36.7
04:20 1016 30 845 24.95 3.9 39 91 2.6 36.7
04:25 1016 30 845 24.95 3.9 39 91 2.6 36.7
04:30 1016 30 845 24.95 3.9 39 91 2.6 36.6
04:35 1016 30 845 24.95 3.9 38.9 91 2.6 36.7
04:40 1016 30 845 24.95 3.8 38.9 92 2.6 36.6
04:45 1016 30 846 24.98 3.9 38.9 92 2.7 36.8
04:50 1016 30 846 24.98 3.9 39 92 2.6 36.8
04:55 1017 30.03 846 24.98 3.8 38.9 92 2.6 36.7
05:00 1017 30.03 846 24.98 3.9 39 92 2.7 36.9
05:05 1017 30.03 846 24.98 3.9 39.1 92 2.7 36.9
05:10 1017 30.03 846 24.98 4 39.1 92 2.7 36.9
05:15 1017 30.03 846 24.98 4 39.1 92 2.7 36.9
05:20 1017 30.03 846 24.98 3.9 39 91 2.5 36.5
05:25 1017 30.03 846 24.98 3.8 38.8 91 2.5 36.5
05:30 1017 30.03 846 24.98 3.9 39 91 2.6 36.7
05:35 1017 30.03 846 24.98 3.9 39.1 91 2.7 36.8
05:40 1017 30.03 846 24.98 3.9 39.1 91 2.7 36.8
05:45 1017 30.03 846 24.98 3.9 39 91 2.6 36.7
05:50 1017 30.03 846 24.98 3.9 39 91 2.6 36.7
05:55 1017 30.03 846 24.98 3.9 39 92 2.6 36.7
06:00 1017 30.03 846 24.98 3.9 38.9 92 2.6 36.7
06:05 1017 30.03 846 24.98 3.9 39 92 2.6 36.7
06:10 1017 30.03 846 24.98 3.8 38.9 91 2.5 36.5
06:15 1017 30.03 846 24.98 3.8 38.8 91 2.5 36.4
06:20 1017 30.03 846 24.98 3.8 38.8 91 2.5 36.5
06:25 1017 30.03 846 24.98 3.8 38.9 92 2.6 36.7
06:30 1017 30.03 846 24.98 3.8 38.9 91 2.5 36.6
06:35 1017 30.03 846 24.98 3.8 38.8 91 2.5 36.5
06:40 1017 30.03 846 24.98 3.8 38.9 91 2.5 36.4
06:45 1017 30.03 846 24.98 3.8 38.8 91 2.4 36.4
06:50 1017 30.03 846 24.98 3.9 38.9 90 2.4 36.4
06:55 1017 30.03 846 24.98 3.8 38.8 90 2.3 36.2
07:00 1017 30.03 846 24.98 3.8 38.9 88 2 35.5
07:05 1017 30.03 846 24.98 3.9 39 86 1.8 35.2
07:10 1017 30.03 846 24.98 3.9 39 86 1.8 35.2
07:15 1017 30.03 846 24.98 3.8 38.9 85 1.5 34.7
07:20 1017 30.03 846 24.98 3.8 38.9 83 1.3 34.3
07:25 1017 30.03 846 24.98 3.8 38.8 85 1.4 34.5
07:30 1017 30.03 846 24.98 3.7 38.7 85 1.4 34.5
07:35 1017 30.03 846 24.98 3.5 38.4 85 1.3 34.4
07:40 1017 30.03 846 24.98 3.5 38.3 86 1.3 34.4
07:45 1017 30.03 846 24.98 3.5 38.3 86 1.3 34.4
07:50 1017 30.03 846 24.98 3.4 38.2 85 1.2 34.1
07:55 1017 30.03 846 24.98 3.5 38.3 86 1.4 34.5
08:00 1017 30.03 846 24.98 3.5 38.2 86 1.3 34.3
08:05 1017 30.03 846 24.98 3.5 38.3 86 1.4 34.6
08:10 1017 30.03 846 24.98 3.5 38.3 86 1.4 34.5
08:15 1017 30.03 846 24.98 3.5 38.4 86 1.4 34.5
08:20 1017 30.03 846 24.98 3.5 38.4 86 1.4 34.5
08:25 1017 30.03 847 25.01 3.6 38.4 86 1.5 34.6
08:30 1017 30.03 847 25.01 3.6 38.5 87 1.5 34.8
08:35 1017 30.03 846 24.98 3.7 38.6 87 1.7 35.1
08:40 1017 30.03 847 25.01 3.7 38.7 87 1.7 35.1
08:45 1017 30.03 847 25.01 3.7 38.7 86 1.7 35
08:50 1017 30.03 847 25.01 3.7 38.7 85 1.4 34.6
08:55 1017 30.03 846 24.98 3.6 38.6 85 1.4 34.5
09:00 1017 30.03 846 24.98 3.6 38.6 84 1.2 34.2
09:05 1017 30.03 846 24.98 3.7 38.7 84 1.2 34.2
09:10 1017 30.03 846 24.98 3.8 38.8 84 1.3 34.4
09:15 1017 30.03 847 25.01 3.7 38.7 85 1.4 34.5
09:20 1017 30.03 847 25.01 3.8 38.8 84 1.3 34.3
09:25 1017 30.03 847 25.01 3.7 38.7 84 1.3 34.3
09:30 1017 30.03 846 24.98 3.8 38.9 83 1.3 34.3
09:35 1017 30.03 847 25.01 3.9 38.9 83 1.3 34.3
09:40 1017 30.03 847 25.01 3.9 39 83 1.4 34.5
09:45 1017 30.03 847 25.01 3.9 39 83 1.3 34.3
09:50 1017 30.03 847 25.01 3.8 38.9 84 1.4 34.4
09:55 1017 30.03 847 25.01 3.9 38.9 84 1.4 34.5
10:00 1017 30.03 847 25.01 3.9 38.9 84 1.3 34.4
10:05 1018 30.06 847 25.01 3.9 39 82 1.1 34
10:10 1017 30.03 847 25.01 3.8 38.9 83 1.2 34.2
10:15 1018 30.06 847 25.01 3.9 39 83 1.3 34.3
10:20 1018 30.06 847 25.01 4 39.2 82 1.1 34.1
10:25 1018 30.06 847 25.01 4.1 39.3 81 1.1 34
10:30 1018 30.06 847 25.01 4.1 39.3 80 1 33.7
10:35 1018 30.06 847 25.01 4 39.2 80 0.9 33.7
10:40 1017 30.03 847 25.01 4 39.2 80 0.8 33.5
10:45 1017 30.03 847 25.01 4 39.2 81 1 33.7
10:50 1017 30.03 847 25.01 4 39.1 81 1 33.8
10:55 1018 30.06 847 25.01 4 39.2 81 1 33.8
11:00 1018 30.06 847 25.01 3.9 39.1 81 1 33.9
11:05 1018 30.06 847 25.01 3.9 39.1 80 0.9 33.6
11:10 1018 30.06 847 25.01 3.9 39 81 1 33.8
11:15 1018 30.06 847 25.01 3.9 39 83 1.2 34.1
11:20 1018 30.06 847 25.01 3.8 38.9 83 1.3 34.3
11:25 1018 30.06 847 25.01 3.9 39.1 83 1.3 34.3
11:30 1018 30.06 847 25.01 4.1 39.3 82 1.2 34.2
11:35 1018 30.06 847 25.01 4.1 39.5 81 1.2 34.1
11:40 1018 30.06 847 25.01 4.2 39.6 80 1.1 34
11:45 1018 30.06 847 25.01 4.1 39.5 79 0.8 33.5
11:50 1018 30.06 847 25.01 4.1 39.4 81 1.1 34
11:55 1018 30.06 847 25.01 4.1 39.4 81 1.1 34.1
12:00 1018 30.06 847 25.01 4 39.2 80 0.9 33.5
12:05 1018 30.06 847 25.01 3.9 39 82 1.1 33.9
12:10 1018 30.06 847 25.01 3.8 38.8 83 1.1 34
12:15 1018 30.06 847 25.01 3.6 38.5 82 0.8 33.5
12:20 1018 30.06 847 25.01 3.5 38.3 82 0.7 33.3
12:25 1018 30.06 847 25.01 3.4 38.2 84 0.9 33.7
12:30 1018 30.06 847 25.01 3.5 38.3 83 0.8 33.5
12:35 1018 30.06 847 25.01 3.6 38.4 83 0.9 33.6
12:40 1018 30.06 847 25.01 3.6 38.6 83 1 33.9
12:45 1018 30.06 847 25.01 3.7 38.7 82 1 33.8
12:50 1018 30.06 847 25.01 3.7 38.7 83 1.1 34
12:55 1018 30.06 847 25.01 3.7 38.7 83 1.1 34
13:00 1018 30.06 847 25.01 3.7 38.7 83 1.2 34.1
13:05 1018 30.06 847 25.01 3.7 38.6 83 1.1 33.9
13:10 1018 30.06 847 25.01 3.6 38.5 84 1.1 34
13:15 1018 30.06 847 25.01 3.6 38.5 84 1.2 34.2
13:20 1018 30.06 847 25.01 3.7 38.6 84 1.2 34.2
13:25 1018 30.06 847 25.01 3.7 38.7 83 1.1 34
13:30 1018 30.06 847 25.01 3.7 38.7 81 0.8 33.4
13:35 1018 30.06 847 25.01 3.7 38.7 83 1 33.9
13:40 1018 30.06 847 25.01 3.8 38.8 83 1.2 34.2
13:45 1018 30.06 847 25.01 3.7 38.7 84 1.2 34.1
13:50 1018 30.06 847 25.01 3.6 38.6 83 1.1 34
13:55 1018 30.06 847 25.01 3.6 38.5 83 1 33.9
14:00 1018 30.06 847 25.01 3.6 38.5 84 1.2 34.1
14:05 1018 30.06 847 25.01 3.6 38.4 84 1.1 34.1
14:10 1018 30.06 847 25.01 3.5 38.3 85 1.2 34.2
14:15 1018 30.06 848 25.04 3.5 38.4 85 1.3 34.4
14:20 1019 30.09 848 25.04 3.5 38.4 85 1.2 34.2
14:25 1019 30.09 848 25.04 3.5 38.3 85 1.3 34.3
14:30 1019 30.09 848 25.04 3.4 38.2 85 1.2 34.2
14:35 1019 30.09 848 25.04 3.4 38.2 85 1.2 34.1
14:40 1019 30.09 848 25.04 3.4 38.2 86 1.3 34.4
14:45 1019 30.09 848 25.04 3.3 38 85 1.1 34
14:50 1019 30.09 848 25.04 3.3 37.9 86 1.1 34.1
14:55 1019 30.09 848 25.04 3.2 37.8 86 1.1 34
15:00 1019 30.09 848 25.04 3.2 37.8 86 1 33.9
15:05 1019 30.09 848 25.04 3.2 37.7 86 1.1 34
15:10 1019 30.09 848 25.04 3.1 37.6 86 1 33.9
15:15 1019 30.09 848 25.04 3.1 37.6 86 1.1 34
15:20 1019 30.09 848 25.04 3.2 37.7 87 1.3 34.3
15:25 1019 30.09 848 25.04 3.2 37.8 88 1.3 34.4
15:30 1019 30.09 848 25.04 3.3 37.9 89 1.6 34.8
15:35 1019 30.09 848 25.04 3.3 37.9 89 1.6 34.9
15:40 1019 30.09 848 25.04 3.3 38 88 1.5 34.8
15:45 1019 30.09 848 25.04 3.4 38.1 88 1.5 34.8
15:50 1019 30.09 848 25.04 3.4 38.1 88 1.6 34.8
15:55 1019 30.09 848 25.04 3.4 38.1 87 1.5 34.6
16:00 1019 30.09 848 25.04 3.4 38.1 88 1.6 34.8
16:05 1019 30.09 848 25.04 3.4 38 87 1.5 34.6
16:10 1019 30.09 848 25.04 3.3 37.9 88 1.4 34.6
16:15 1019 30.09 848 25.04 3.3 38 89 1.7 35
16:20 1019 30.09 848 25.04 3.6 38.4 89 1.9 35.4
16:25 1019 30.09 848 25.04 3.6 38.5 88 1.9 35.4
16:30 1019 30.09 848 25.04 3.5 38.2 84 1.1 33.9
16:35 1019 30.09 848 25.04 3.4 38.1 87 1.4 34.5
16:40 1019 30.09 848 25.04 3.5 38.3 87 1.6 34.8
16:45 1019 30.09 848 25.04 3.4 38.1 89 1.7 35.1
16:50 1019 30.09 848 25.04 3.5 38.2 89 1.8 35.2
16:55 1019 30.09 849 25.07 3.5 38.3 88 1.7 35.1
17:00 1019 30.09 849 25.07 3.5 38.3 88 1.7 35.1
17:05 1019 30.09 849 25.07 3.4 38.2 87 1.4 34.6
17:10 1020 30.12 849 25.07 3.2 37.7 88 1.3 34.4
17:15 1020 30.12 849 25.07 3 37.4 89 1.3 34.4
17:20 1020 30.12 849 25.07 3 37.5 89 1.4 34.4
17:25 1020 30.12 849 25.07 3.1 37.6 89 1.4 34.6
17:30 1020 30.12 849 25.07 3.2 37.7 89 1.5 34.7
17:35 1020 30.12 849 25.07 3.1 37.7 88 1.4 34.5
17:40 1020 30.12 849 25.07 3.3 37.9 88 1.6 34.8
17:45 1020 30.12 849 25.07 3.4 38.1 88 1.7 35
17:50 1020 30.12 849 25.07 3.4 38.2 88 1.7 35
17:55 1020 30.12 849 25.07 3.4 38.1 88 1.5 34.8
18:00 1020 30.12 849 25.07 3.1 37.6 87 1.2 34.1
18:05 1020 30.12 849 25.07 3 37.4 87 1 33.8
18:10 1020 30.12 849 25.07 3 37.4 86 0.8 33.5
18:15 1020 30.12 849 25.07 3 37.4 86 0.8 33.5
18:20 1020 30.12 849 25.07 3 37.4 87 1 33.8
18:25 1020 30.12 849 25.07 2.9 37.1 88 1.1 34
18:30 1020 30.12 849 25.07 2.9 37.2 88 1.1 33.9
18:35 1020 30.12 849 25.07 2.6 36.8 88 0.9 33.7
18:40 1020 30.12 849 25.07 2.5 36.6 88 0.8 33.4
18:45 1020 30.12 849 25.07 2.5 36.6 89 0.9 33.5
18:50 1020 30.12 849 25.07 2.6 36.7 89 1 33.8
18:55 1020 30.12 849 25.07 2.6 36.7 89 1 33.8
19:00 1020 30.12 849 25.07 2.6 36.6 89 1 33.8
19:05 1020 30.12 849 25.07 2.6 36.7 89 1 33.7
19:10 1020 30.12 849 25.07 2.5 36.6 89 0.9 33.6
19:15 1020 30.12 849 25.07 2.6 36.6 89 1 33.7
19:20 1020 30.12 849 25.07 2.6 36.6 90 1 33.8
19:25 1020 30.12 849 25.07 2.6 36.7 90 1.2 34.1
19:30 1020 30.12 850 25.1 2.6 36.7 90 1.2 34.1
19:35 1020 30.12 850 25.1 2.6 36.7 90 1.1 34
19:40 1020 30.12 850 25.1 2.6 36.6 90 1.1 33.9
19:45 1020 30.12 850 25.1 2.7 36.8 90 1.1 34
19:50 1020 30.12 850 25.1 2.5 36.6 89 0.9 33.7
19:55 1020 30.12 850 25.1 2.5 36.4 90 1 33.7
20:00 1020 30.12 850 25.1 2.5 36.4 89 0.8 33.5
20:05 1020 30.12 850 25.1 2.4 36.3 89 0.8 33.4
20:10 1020 30.12 850 25.1 2.4 36.2 89 0.8 33.4
20:15 1020 30.12 850 25.1 2.4 36.3 90 0.9 33.6
20:20 1020 30.12 849 25.07 2.5 36.4 90 1 33.7
20:25 1020 30.12 849 25.07 2.5 36.5 90 1 33.8
20:30 1020 30.12 849 25.07 2.5 36.6 89 0.8 33.5
20:35 1020 30.12 849 25.07 2.6 36.6 87 0.7 33.2
20:40 1020 30.12 849 25.07 2.6 36.6 88 0.8 33.5
20:45 1020 30.12 849 25.07 2.6 36.6 89 0.9 33.7
20:50 1020 30.12 849 25.07 2.6 36.7 89 1 33.9
20:55 1020 30.12 849 25.07 2.5 36.5 88 0.6 33.2
21:00 1020 30.12 849 25.07 2.5 36.6 88 0.7 33.2
21:05 1020 30.12 849 25.07 2.5 36.5 87 0.6 33.1
21:10 1020 30.12 849 25.07 2.6 36.6 88 0.8 33.4
21:15 1020 30.12 849 25.07 2.6 36.7 85 0.3 32.6
21:20 1020 30.12 849 25.07 2.7 36.8 84 0.2 32.4
21:25 1020 30.12 849 25.07 2.7 36.8 84 0.2 32.4
21:30 1020 30.12 849 25.07 2.7 36.8 83 0 32.1
21:35 1020 30.12 849 25.07 2.7 36.8 83 0.1 32.2
21:40 1020 30.12 849 25.07 2.8 37 82 0.1 32.1
21:45 1020 30.12 849 25.07 2.8 37.1 81 -0 32
21:50 1020 30.12 849 25.07 2.8 37.1 83 0.3 32.5
21:55 1020 30.12 849 25.07 2.7 36.8 82 -0 32
22:00 1020 30.12 849 25.07 2.6 36.7 82 -0.1 31.8
22:05 1020 30.12 849 25.07 2.6 36.6 84 0.1 32.2
22:10 1020 30.12 849 25.07 2.6 36.6 83 -0 31.9
22:15 1020 30.12 849 25.07 2.6 36.7 84 0.2 32.3
22:20 1020 30.12 849 25.07 2.7 36.8 85 0.4 32.7
22:25 1020 30.12 849 25.07 2.7 36.9 84 0.3 32.5
22:30 1020 30.12 849 25.07 2.6 36.8 87 0.7 33.2
22:35 1020 30.12 849 25.07 2.4 36.4 88 0.6 33.2
22:40 1020 30.12 849 25.07 2.4 36.2 88 0.5 32.9
22:45 1020 30.12 849 25.07 2.4 36.3 88 0.5 32.9
22:50 1020 30.12 849 25.07 2.4 36.4 88 0.7 33.2
22:55 1020 30.12 849 25.07 2.3 36.2 88 0.6 33.1
23:00 1020 30.12 849 25.07 2.3 36.2 88 0.5 33
23:05 1020 30.12 849 25.07 2.4 36.3 88 0.6 33.2
23:10 1020 30.12 849 25.07 2.3 36.2 88 0.6 33
23:15 1020 30.12 849 25.07 2.2 36 89 0.6 33
23:20 1020 30.12 849 25.07 2.1 35.8 89 0.5 32.9
23:25 1020 30.12 849 25.07 2 35.6 90 0.4 32.8
23:30 1020 30.12 849 25.07 1.9 35.4 89 0.3 32.6
23:35 1020 30.12 849 25.07 1.7 35.1 90 0.3 32.5
23:40 1020 30.12 849 25.07 1.7 35 90 0.2 32.4
23:45 1020 30.12 849 25.07 1.6 34.9 90 0.2 32.4
23:50 1020 30.12 849 25.07 1.5 34.7 90 0.1 32.2
23:55 1020 30.12 849 25.07 1.3 34.4 90 -0.1 31.8
24:00 1020 30.12 849 25.07 1 33.8 91 -0.3 31.5